Weather History for KPVW - September, 2013

Change the Weather History Date:

Saturday, September 7, 2013

  Actual Average (KLBB) Record (KLBB)
Temperature  
Mean Temperature 78 °F 75 °F  
Max Temperature 95 °F 87 °F 99 °F (2012)
Min Temperature 61 °F 62 °F 45 °F (1918)
Degree Days  
Heating Degree Days 0 0  
Month to date heating degree days 0  
Since 1 July heating degree days 0  
Cooling Degree Days 13 10  
Month to date cooling degree days 74  
Year to date cooling degree days 1600  
Growing Degree Days 28 (Base 50)    
Moisture  
Dew Point 56 °F    
Average Humidity 51    
Maximum Humidity 76    
Minimum Humidity 26    
Precipitation  
Precipitation 0.00 in 0.09 in 1.58 in (1937)
Month to date precipitation 0.59  
Year to date precipitation 13.66  
Snow  
Snow 0.00 in 0.00 in 0.00 in (2002)
Month to date snowfall 0.0  
Since 1 July snowfall 0.0  
Since 1 September snowfall 0.0  
Snow Depth -    
Sea Level Pressure  
Sea Level Pressure 30.10 in    
Wind  
Wind Speed 6 mph (SSW)    
Max Wind Speed 21 mph    
Max Gust Speed 21 mph    
Visibility 10 miles    
Events      
T = Trace of Precipitation, MM = Missing Value Source: NWS Daily Summary

Daily Weather History Graph

Daily Weather History Graph

Search for Another Location

Airport or City:

Trip Planner

Search our weather history database for the weather conditions in past years. The results will help you decide how hot, cold, wet, or windy it might be!

Date:

Astronomy

Sep. 07, 2013 Rise Set
Actual Time 7:24 AM CDT 8:04 PM CDT
Civil Twilight 6:59 AM CDT 8:29 PM CDT
Nautical Twilight 6:29 AM CDT 8:59 PM CDT
Astronomical Twilight 5:58 AM CDT 9:29 PM CDT
Moon 9:32 AM CDT (9/7) 9:13 PM CDT (9/7)
Length of Visible Light 13h 30m
Length of Day
12h 39m
Waxing Crescent, 5% of the Moon is Illuminated
Sep 7
Waxing Crescent
Sep 12
First Quarter
Sep 19
Full
Sep 26
Last Quarter
Oct 4
New

Hourly Weather History & Observations

Time (CDT) Temp. Heat Index Dew Point Humidity Pressure Visibility Wind Dir Wind Speed Gust Speed Precip Events Conditions
12:15 AM 70.0 °F - 54.9 °F 59% 30.11 in 10.0 mi South 5.8 mph - N/A   Clear
12:35 AM 70.2 °F - 54.3 °F 57% 30.11 in 10.0 mi South 5.8 mph - N/A   Clear
12:55 AM 70.0 °F - 54.1 °F 57% 30.11 in 10.0 mi South 5.8 mph - N/A   Clear
1:15 AM 70.0 °F - 55.6 °F 60% 30.12 in 10.0 mi SSW 5.8 mph - N/A   Clear
1:35 AM 70.0 °F - 54.5 °F 58% 30.12 in 10.0 mi SSW 3.5 mph - N/A   Clear
1:55 AM 70.0 °F - 55.2 °F 59% 30.12 in 10.0 mi SW 4.6 mph - N/A   Clear
2:15 AM 70.0 °F - 55.6 °F 60% 30.12 in 10.0 mi SW 4.6 mph - N/A   Clear
2:35 AM 70.0 °F - 56.5 °F 62% 30.12 in 10.0 mi SW 3.5 mph - N/A   Clear
2:55 AM 67.8 °F - 54.7 °F 63% 30.11 in 10.0 mi SW 3.5 mph - N/A   Clear
3:15 AM 67.5 °F - 54.9 °F 64% 30.11 in 10.0 mi SW 4.6 mph - N/A   Clear
3:35 AM 67.5 °F - 55.4 °F 65% 30.11 in 10.0 mi SW 3.5 mph - N/A   Clear
3:55 AM 70.0 °F - 56.3 °F 62% 30.11 in 10.0 mi SW 5.8 mph - N/A   Clear
4:15 AM 70.0 °F - 55.9 °F 61% 30.11 in 10.0 mi SW 5.8 mph - N/A   Clear
4:55 AM 67.5 °F - 55.4 °F 65% 30.11 in 10.0 mi SW 4.6 mph - N/A   Clear
5:15 AM 64.9 °F - 53.8 °F 67% 30.11 in 10.0 mi Calm Calm - N/A   Clear
5:35 AM 62.8 °F - 53.4 °F 71% 30.11 in 10.0 mi WSW 4.6 mph - N/A   Clear
5:55 AM 63.7 °F - 53.8 °F 70% 30.11 in 10.0 mi WSW 4.6 mph - N/A   Clear
6:15 AM 62.8 °F - 53.8 °F 72% 30.11 in 10.0 mi West 3.5 mph - N/A   Clear
6:35 AM 62.1 °F - 53.8 °F 74% 30.11 in 10.0 mi West 5.8 mph - N/A   Clear
6:55 AM 62.6 °F - 54.1 °F 74% 30.11 in 10.0 mi West 4.6 mph - N/A   Clear
7:15 AM 62.6 °F - 54.1 °F 74% 30.12 in 7.0 mi West 4.6 mph - N/A   Clear
7:35 AM 61.2 °F - 53.6 °F 76% 30.12 in 10.0 mi WNW 4.6 mph - N/A   Clear
7:55 AM 62.4 °F - 54.5 °F 75% 30.13 in 10.0 mi West 4.6 mph - N/A   Clear
8:15 AM 63.9 °F - 54.9 °F 72% 30.13 in 10.0 mi West 3.5 mph - N/A   Clear
8:35 AM 70.0 °F - 57.4 °F 64% 30.13 in 10.0 mi West 4.6 mph - N/A   Clear
8:55 AM 72.0 °F - 57.0 °F 59% 30.13 in 10.0 mi West 4.6 mph - N/A   Clear
9:15 AM 75.2 °F - 58.1 °F 55% 30.13 in 10.0 mi West 8.1 mph - N/A   Clear
9:35 AM 77.5 °F - 58.8 °F 52% 30.13 in 10.0 mi West 9.2 mph - N/A   Clear
9:55 AM 80.1 °F 80.8 °F 59.5 °F 49% 30.13 in 10.0 mi West 10.4 mph - N/A   Clear
10:15 AM 81.5 °F 81.7 °F 58.8 °F 46% 30.14 in 10.0 mi West 8.1 mph - N/A   Clear
10:35 AM 82.6 °F 82.6 °F 59.0 °F 45% 30.15 in 10.0 mi West 8.1 mph - N/A   Clear
10:55 AM 83.7 °F 83.1 °F 57.6 °F 41% 30.15 in 10.0 mi WSW 9.2 mph - N/A   Clear
11:15 AM 85.1 °F 84.3 °F 57.2 °F 39% 30.15 in 10.0 mi WSW 6.9 mph - N/A   Clear
11:35 AM 87.8 °F 86.9 °F 58.3 °F 37% 30.15 in 10.0 mi WSW 8.1 mph - N/A   Clear
11:55 AM 88.7 °F 87.5 °F 58.1 °F 35% 30.15 in 10.0 mi SW 4.6 mph - N/A   Clear
12:15 PM 90.1 °F 88.6 °F 56.7 °F 32% 30.15 in 10.0 mi SSW 4.6 mph - N/A   Clear
12:35 PM 90.1 °F 88.3 °F 55.4 °F 31% 30.14 in 10.0 mi Calm Calm - N/A   Clear
12:55 PM 90.1 °F 88.3 °F 55.6 °F 31% 30.13 in 10.0 mi SSE 5.8 mph - N/A   Clear
1:15 PM 90.1 °F 88.3 °F 56.1 °F 31% 30.13 in 10.0 mi WSW 4.6 mph - N/A   Scattered Clouds
1:35 PM 90.1 °F 88.3 °F 56.1 °F 31% 30.12 in 10.0 mi SSW 5.8 mph - N/A   Scattered Clouds
1:55 PM 90.1 °F 88.6 °F 56.5 °F 32% 30.11 in 10.0 mi South 6.9 mph - N/A   Scattered Clouds
2:15 PM 91.2 °F 89.1 °F 54.7 °F 29% 30.11 in 10.0 mi SSE 9.2 mph - N/A   Scattered Clouds
2:35 PM 90.1 °F 88.1 °F 54.9 °F 30% 30.10 in 10.0 mi SSE 6.9 mph - N/A   Clear
2:55 PM 95.2 °F 93.6 °F 56.7 °F 27% 30.09 in 10.0 mi SW 11.5 mph 16.1 mph N/A   Scattered Clouds
3:15 PM 92.8 °F 90.6 °F 54.5 °F 27% 30.08 in 10.0 mi South 8.1 mph 16.1 mph N/A   Scattered Clouds
3:35 PM 93.9 °F 92.0 °F 55.0 °F 27% 30.07 in 10.0 mi South 9.2 mph - N/A   Scattered Clouds
3:55 PM 95.2 °F 93.3 °F 55.6 °F 26% 30.06 in 10.0 mi SE 6.9 mph - N/A   Scattered Clouds
4:15 PM 95.2 °F 93.3 °F 54.9 °F 26% 30.06 in 10.0 mi SSE 9.2 mph - N/A   Scattered Clouds
4:35 PM 92.1 °F 89.7 °F 53.6 °F 27% 30.05 in 10.0 mi South 5.8 mph - N/A   Mostly Cloudy
4:55 PM 90.1 °F 87.9 °F 53.6 °F 29% 30.04 in 10.0 mi SSW 6.9 mph - N/A   Mostly Cloudy
5:15 PM 90.1 °F 88.1 °F 54.7 °F 30% 30.05 in 10.0 mi SSE 6.9 mph - N/A   Scattered Clouds
5:35 PM 90.3 °F 88.3 °F 55.0 °F 30% 30.05 in 10.0 mi SE 17.3 mph 20.7 mph N/A   Clear
5:55 PM 89.2 °F 88.7 °F 59.5 °F 37% 30.05 in 10.0 mi SSE 20.7 mph - N/A   Clear
6:15 PM 84.2 °F 83.7 °F 57.9 °F 41% 30.05 in 10.0 mi SSE 12.7 mph - N/A   Clear
6:35 PM 82.6 °F 82.6 °F 59.4 °F 45% 30.05 in 10.0 mi SSE 9.2 mph - N/A   Clear
6:55 PM 82.6 °F 82.6 °F 59.0 °F 45% 30.05 in 10.0 mi South 8.1 mph - N/A   Clear
7:15 PM 81.7 °F 81.4 °F 56.5 °F 42% 30.05 in 10.0 mi South 9.2 mph - N/A   Clear
7:35 PM 81.5 °F 81.0 °F 55.2 °F 40% 30.05 in 10.0 mi South 9.2 mph - N/A   Clear
7:55 PM 80.1 °F 80.4 °F 57.2 °F 45% 30.05 in 10.0 mi South 6.9 mph - N/A   Clear
8:15 PM 77.5 °F - 57.7 °F 50% 30.05 in 10.0 mi South 4.6 mph - N/A   Clear
8:35 PM 75.2 °F - 57.2 °F 53% 30.05 in 10.0 mi SSW 4.6 mph - N/A   Clear
8:55 PM 76.6 °F - 57.9 °F 52% 30.05 in 10.0 mi South 5.8 mph - N/A   Clear
9:15 PM 75.2 °F - 59.9 °F 59% 30.06 in 10.0 mi South 3.5 mph - N/A   Clear
9:35 PM 72.5 °F - 58.5 °F 61% 30.06 in 10.0 mi SSE 4.6 mph - N/A   Clear
9:55 PM 71.2 °F - 58.1 °F 63% 30.06 in 10.0 mi SSE 4.6 mph - N/A   Clear
10:15 PM 71.1 °F - 57.7 °F 63% 30.07 in 10.0 mi South 4.6 mph - N/A   Clear
10:35 PM 70.0 °F - 58.1 °F 66% 30.08 in 10.0 mi SSE 5.8 mph - N/A   Clear
10:55 PM 70.0 °F - 57.9 °F 65% 30.08 in 10.0 mi South 5.8 mph - N/A   Clear
11:15 PM 72.5 °F - 59.9 °F 64% 30.08 in 10.0 mi South 5.8 mph - N/A   Clear
11:35 PM 70.0 °F - 58.6 °F 67% 30.08 in 10.0 mi South 5.8 mph - N/A   Clear
11:55 PM 70.0 °F - 60.8 °F 73% 30.09 in 10.0 mi South 4.6 mph - N/A   Clear